sensor_id;sensor_type;location;lat;lon;timestamp;temperature;humidity
25128;DHT22;13107;51.304;6.866;2024-03-23T00:56:56;6.50;99.90
25128;DHT22;13107;51.304;6.866;2024-03-23T01:00:57;6.50;99.90
25128;DHT22;13107;51.304;6.866;2024-03-23T01:04:58;6.50;99.90
25128;DHT22;13107;51.304;6.866;2024-03-23T01:08:59;6.40;99.90
25128;DHT22;13107;51.304;6.866;2024-03-23T01:12:59;6.40;99.90
25128;DHT22;13107;51.304;6.866;2024-03-23T01:17:00;6.50;99.90
25128;DHT22;13107;51.304;6.866;2024-03-23T01:21:01;6.50;99.90
25128;DHT22;13107;51.304;6.866;2024-03-23T01:25:02;6.60;99.90
25128;DHT22;13107;51.304;6.866;2024-03-23T01:29:03;6.50;99.90
25128;DHT22;13107;51.304;6.866;2024-03-23T01:33:04;6.50;99.90
25128;DHT22;13107;51.304;6.866;2024-03-23T01:37:05;6.60;99.90
25128;DHT22;13107;51.304;6.866;2024-03-23T01:41:05;6.60;99.90
25128;DHT22;13107;51.304;6.866;2024-03-23T01:45:07;6.60;99.90
25128;DHT22;13107;51.304;6.866;2024-03-23T01:49:09;6.40;99.90
25128;DHT22;13107;51.304;6.866;2024-03-23T01:53:10;6.40;99.90
25128;DHT22;13107;51.304;6.866;2024-03-23T01:57:11;6.30;99.90
25128;DHT22;13107;51.304;6.866;2024-03-23T02:01:14;6.30;99.90
25128;DHT22;13107;51.304;6.866;2024-03-23T02:05:15;6.20;99.90
25128;DHT22;13107;51.304;6.866;2024-03-23T02:09:16;6.20;99.90
25128;DHT22;13107;51.304;6.866;2024-03-23T02:13:18;6.10;99.90
25128;DHT22;13107;51.304;6.866;2024-03-23T02:17:19;6.00;99.90
25128;DHT22;13107;51.304;6.866;2024-03-23T02:21:20;6.00;99.90
25128;DHT22;13107;51.304;6.866;2024-03-23T02:25:20;6.00;99.90
25128;DHT22;13107;51.304;6.866;2024-03-23T02:29:21;5.90;99.90
25128;DHT22;13107;51.304;6.866;2024-03-23T02:33:22;5.80;99.90
25128;DHT22;13107;51.304;6.866;2024-03-23T02:37:24;5.90;99.90
25128;DHT22;13107;51.304;6.866;2024-03-23T02:41:25;5.90;99.90
25128;DHT22;13107;51.304;6.866;2024-03-23T02:45:26;6.00;99.90
25128;DHT22;13107;51.304;6.866;2024-03-23T02:54:30;6.00;99.90
25128;DHT22;13107;51.304;6.866;2024-03-23T02:58:31;6.00;99.90
25128;DHT22;13107;51.304;6.866;2024-03-23T03:02:32;5.90;99.90
25128;DHT22;13107;51.304;6.866;2024-03-23T03:06:33;5.80;99.90
25128;DHT22;13107;51.304;6.866;2024-03-23T03:10:34;5.90;99.90
25128;DHT22;13107;51.304;6.866;2024-03-23T03:14:36;5.90;99.90
25128;DHT22;13107;51.304;6.866;2024-03-23T03:18:38;6.00;99.90
25128;DHT22;13107;51.304;6.866;2024-03-23T03:22:39;6.00;99.90
25128;DHT22;13107;51.304;6.866;2024-03-23T03:26:40;6.00;99.90
25128;DHT22;13107;51.304;6.866;2024-03-23T03:30:41;5.90;99.90
25128;DHT22;13107;51.304;6.866;2024-03-23T03:34:41;5.90;99.90
25128;DHT22;13107;51.304;6.866;2024-03-23T03:38:42;5.90;99.90
25128;DHT22;13107;51.304;6.866;2024-03-23T03:42:43;5.90;99.90
25128;DHT22;13107;51.304;6.866;2024-03-23T03:46:45;6.00;99.90
25128;DHT22;13107;51.304;6.866;2024-03-23T03:50:46;5.90;99.90
25128;DHT22;13107;51.304;6.866;2024-03-23T03:54:47;5.90;99.90
25128;DHT22;13107;51.304;6.866;2024-03-23T03:58:47;5.90;99.90
25128;DHT22;13107;51.304;6.866;2024-03-23T04:02:48;5.90;99.90
25128;DHT22;13107;51.304;6.866;2024-03-23T04:06:49;5.80;99.90
25128;DHT22;13107;51.304;6.866;2024-03-23T04:10:50;5.80;99.90
25128;DHT22;13107;51.304;6.866;2024-03-23T04:14:51;5.90;99.90
25128;DHT22;13107;51.304;6.866;2024-03-23T04:18:52;5.80;99.90
25128;DHT22;13107;51.304;6.866;2024-03-23T04:22:52;5.90;99.90
25128;DHT22;13107;51.304;6.866;2024-03-23T04:26:54;5.90;99.90
25128;DHT22;13107;51.304;6.866;2024-03-23T04:30:55;5.90;99.90
25128;DHT22;13107;51.304;6.866;2024-03-23T04:34:56;5.80;99.90
25128;DHT22;13107;51.304;6.866;2024-03-23T04:38:59;5.80;99.90
25128;DHT22;13107;51.304;6.866;2024-03-23T04:43:00;5.80;99.90
25128;DHT22;13107;51.304;6.866;2024-03-23T04:47:01;5.80;99.90
25128;DHT22;13107;51.304;6.866;2024-03-23T04:51:02;5.80;99.90
25128;DHT22;13107;51.304;6.866;2024-03-23T04:55:04;5.80;99.90
25128;DHT22;13107;51.304;6.866;2024-03-23T04:59:04;5.90;99.90
25128;DHT22;13107;51.304;6.866;2024-03-23T05:03:05;5.80;99.90
25128;DHT22;13107;51.304;6.866;2024-03-23T05:07:06;5.80;99.90
25128;DHT22;13107;51.304;6.866;2024-03-23T05:11:07;5.90;99.90
25128;DHT22;13107;51.304;6.866;2024-03-23T05:15:08;5.80;99.90
25128;DHT22;13107;51.304;6.866;2024-03-23T05:19:09;5.80;99.90
25128;DHT22;13107;51.304;6.866;2024-03-23T05:23:10;5.90;99.90
25128;DHT22;13107;51.304;6.866;2024-03-23T05:27:11;5.90;99.90
25128;DHT22;13107;51.304;6.866;2024-03-23T05:31:12;5.80;99.90
25128;DHT22;13107;51.304;6.866;2024-03-23T05:35:13;5.90;99.90
25128;DHT22;13107;51.304;6.866;2024-03-23T05:39:13;5.90;99.90
25128;DHT22;13107;51.304;6.866;2024-03-23T05:43:17;5.90;99.90
25128;DHT22;13107;51.304;6.866;2024-03-23T05:47:17;5.90;99.90
25128;DHT22;13107;51.304;6.866;2024-03-23T05:51:18;5.80;99.90
25128;DHT22;13107;51.304;6.866;2024-03-23T05:55:19;5.70;99.90
25128;DHT22;13107;51.304;6.866;2024-03-23T05:59:20;5.80;99.90
25128;DHT22;13107;51.304;6.866;2024-03-23T06:03:21;5.70;99.90
25128;DHT22;13107;51.304;6.866;2024-03-23T06:07:22;5.80;99.90
25128;DHT22;13107;51.304;6.866;2024-03-23T06:11:23;5.80;99.90
25128;DHT22;13107;51.304;6.866;2024-03-23T06:15:23;5.80;99.90
25128;DHT22;13107;51.304;6.866;2024-03-23T06:19:25;5.90;99.90
25128;DHT22;13107;51.304;6.866;2024-03-23T06:23:28;5.90;99.90
25128;DHT22;13107;51.304;6.866;2024-03-23T06:27:29;5.90;99.90
25128;DHT22;13107;51.304;6.866;2024-03-23T06:31:29;5.90;99.90
25128;DHT22;13107;51.304;6.866;2024-03-23T06:35:30;5.90;99.90
25128;DHT22;13107;51.304;6.866;2024-03-23T06:39:31;5.90;99.90
25128;DHT22;13107;51.304;6.866;2024-03-23T06:43:32;5.80;99.90
25128;DHT22;13107;51.304;6.866;2024-03-23T06:47:33;5.80;99.90
25128;DHT22;13107;51.304;6.866;2024-03-23T06:51:34;5.90;99.90
25128;DHT22;13107;51.304;6.866;2024-03-23T06:55:35;5.80;99.90
25128;DHT22;13107;51.304;6.866;2024-03-23T06:59:36;5.90;99.90
25128;DHT22;13107;51.304;6.866;2024-03-23T07:03:36;5.90;99.90
25128;DHT22;13107;51.304;6.866;2024-03-23T07:07:38;5.90;99.90
25128;DHT22;13107;51.304;6.866;2024-03-23T07:11:39;5.90;99.90
25128;DHT22;13107;51.304;6.866;2024-03-23T07:15:40;6.00;99.90
25128;DHT22;13107;51.304;6.866;2024-03-23T07:19:41;6.10;99.90
25128;DHT22;13107;51.304;6.866;2024-03-23T07:23:42;6.20;99.90
25128;DHT22;13107;51.304;6.866;2024-03-23T07:27:46;6.20;99.90
25128;DHT22;13107;51.304;6.866;2024-03-23T07:31:47;6.20;99.90
25128;DHT22;13107;51.304;6.866;2024-03-23T07:35:48;6.30;99.90
25128;DHT22;13107;51.304;6.866;2024-03-23T07:39:48;6.40;99.90
25128;DHT22;13107;51.304;6.866;2024-03-23T07:43:49;6.50;99.90
25128;DHT22;13107;51.304;6.866;2024-03-23T07:47:51;6.60;99.90
25128;DHT22;13107;51.304;6.866;2024-03-23T07:51:52;6.70;99.90
25128;DHT22;13107;51.304;6.866;2024-03-23T07:56:09;6.80;99.90
25128;DHT22;13107;51.304;6.866;2024-03-23T08:00:13;6.90;99.90
25128;DHT22;13107;51.304;6.866;2024-03-23T08:04:14;7.00;99.90
25128;DHT22;13107;51.304;6.866;2024-03-23T08:08:15;7.10;99.90
25128;DHT22;13107;51.304;6.866;2024-03-23T08:12:16;7.10;99.90
25128;DHT22;13107;51.304;6.866;2024-03-23T08:16:17;7.20;99.90
25128;DHT22;13107;51.304;6.866;2024-03-23T08:20:17;7.60;99.90
25128;DHT22;13107;51.304;6.866;2024-03-23T08:24:18;8.30;99.90
25128;DHT22;13107;51.304;6.866;2024-03-23T08:28:20;8.60;99.90
25128;DHT22;13107;51.304;6.866;2024-03-23T08:32:21;8.70;99.90
25128;DHT22;13107;51.304;6.866;2024-03-23T08:36:22;9.60;99.90
25128;DHT22;13107;51.304;6.866;2024-03-23T08:40:23;10.10;99.90
25128;DHT22;13107;51.304;6.866;2024-03-23T08:44:23;9.60;99.90
25128;DHT22;13107;51.304;6.866;2024-03-23T08:48:24;9.00;99.90
25128;DHT22;13107;51.304;6.866;2024-03-23T08:52:25;8.30;99.90
25128;DHT22;13107;51.304;6.866;2024-03-23T08:56:29;6.80;99.90
25128;DHT22;13107;51.304;6.866;2024-03-23T09:00:30;6.30;99.90
25128;DHT22;13107;51.304;6.866;2024-03-23T09:04:31;5.80;99.90
25128;DHT22;13107;51.304;6.866;2024-03-23T09:08:32;5.30;99.90
25128;DHT22;13107;51.304;6.866;2024-03-23T09:12:32;5.20;99.90
25128;DHT22;13107;51.304;6.866;2024-03-23T09:16:33;5.30;99.90
25128;DHT22;13107;51.304;6.866;2024-03-23T09:20:34;5.40;99.90
25128;DHT22;13107;51.304;6.866;2024-03-23T09:24:35;5.50;99.90
25128;DHT22;13107;51.304;6.866;2024-03-23T09:28:36;5.60;99.90
25128;DHT22;13107;51.304;6.866;2024-03-23T09:32:37;6.30;99.90
25128;DHT22;13107;51.304;6.866;2024-03-23T09:36:38;7.10;99.90
25128;DHT22;13107;51.304;6.866;2024-03-23T09:40:42;8.30;99.90
25128;DHT22;13107;51.304;6.866;2024-03-23T09:44:44;10.00;99.90
25128;DHT22;13107;51.304;6.866;2024-03-23T09:48:46;11.00;99.90
25128;DHT22;13107;51.304;6.866;2024-03-23T09:52:48;11.10;99.90
25128;DHT22;13107;51.304;6.866;2024-03-23T09:56:49;9.80;99.90
25128;DHT22;13107;51.304;6.866;2024-03-23T10:00:49;9.40;99.90
25128;DHT22;13107;51.304;6.866;2024-03-23T10:04:50;8.80;99.90
25128;DHT22;13107;51.304;6.866;2024-03-23T10:08:52;10.50;99.90
25128;DHT22;13107;51.304;6.866;2024-03-23T10:12:53;11.40;99.90
25128;DHT22;13107;51.304;6.866;2024-03-23T10:16:54;12.40;99.90
25128;DHT22;13107;51.304;6.866;2024-03-23T10:21:09;13.50;99.90
25128;DHT22;13107;51.304;6.866;2024-03-23T10:25:11;12.20;99.90
25128;DHT22;13107;51.304;6.866;2024-03-23T10:29:17;11.30;99.90
25128;DHT22;13107;51.304;6.866;2024-03-23T10:33:18;10.80;99.90
25128;DHT22;13107;51.304;6.866;2024-03-23T10:37:21;9.30;99.90
25128;DHT22;13107;51.304;6.866;2024-03-23T10:41:23;8.50;99.90
25128;DHT22;13107;51.304;6.866;2024-03-23T10:45:26;7.60;99.90
25128;DHT22;13107;51.304;6.866;2024-03-23T10:49:29;7.10;99.90
25128;DHT22;13107;51.304;6.866;2024-03-23T10:53:33;6.70;99.90
25128;DHT22;13107;51.304;6.866;2024-03-23T10:57:42;6.40;99.90
25128;DHT22;13107;51.304;6.866;2024-03-23T11:01:58;6.40;99.90
25128;DHT22;13107;51.304;6.866;2024-03-23T11:06:00;6.50;99.90
25128;DHT22;13107;51.304;6.866;2024-03-23T11:10:01;6.80;99.90
25128;DHT22;13107;51.304;6.866;2024-03-23T11:14:21;7.00;99.90
25128;DHT22;13107;51.304;6.866;2024-03-23T11:18:22;6.90;99.90
25128;DHT22;13107;51.304;6.866;2024-03-23T11:22:39;7.20;99.90
25128;DHT22;13107;51.304;6.866;2024-03-23T11:26:40;8.50;99.90
25128;DHT22;13107;51.304;6.866;2024-03-23T11:30:41;8.80;99.90
25128;DHT22;13107;51.304;6.866;2024-03-23T11:34:43;9.50;99.90
25128;DHT22;13107;51.304;6.866;2024-03-23T11:38:44;10.70;99.90
25128;DHT22;13107;51.304;6.866;2024-03-23T11:42:44;11.50;99.90
25128;DHT22;13107;51.304;6.866;2024-03-23T11:46:46;11.80;99.90
25128;DHT22;13107;51.304;6.866;2024-03-23T11:50:48;12.00;99.90
25128;DHT22;13107;51.304;6.866;2024-03-23T11:54:49;11.80;99.90
25128;DHT22;13107;51.304;6.866;2024-03-23T11:58:50;11.00;99.90
25128;DHT22;13107;51.304;6.866;2024-03-23T12:02:52;9.10;99.90
25128;DHT22;13107;51.304;6.866;2024-03-23T12:07:16;7.30;99.90
25128;DHT22;13107;51.304;6.866;2024-03-23T12:11:21;6.20;99.90
25128;DHT22;13107;51.304;6.866;2024-03-23T12:15:23;5.90;99.90
25128;DHT22;13107;51.304;6.866;2024-03-23T12:19:24;6.10;99.90
25128;DHT22;13107;51.304;6.866;2024-03-23T12:23:24;6.60;99.90
25128;DHT22;13107;51.304;6.866;2024-03-23T12:27:25;7.00;99.90
25128;DHT22;13107;51.304;6.866;2024-03-23T12:31:26;7.10;99.90
25128;DHT22;13107;51.304;6.866;2024-03-23T12:35:27;7.10;99.90
25128;DHT22;13107;51.304;6.866;2024-03-23T12:39:28;7.20;99.90
25128;DHT22;13107;51.304;6.866;2024-03-23T12:43:28;7.70;99.90
25128;DHT22;13107;51.304;6.866;2024-03-23T12:47:32;8.00;99.90
25128;DHT22;13107;51.304;6.866;2024-03-23T12:51:33;8.00;99.90
25128;DHT22;13107;51.304;6.866;2024-03-23T12:55:37;7.80;99.90
25128;DHT22;13107;51.304;6.866;2024-03-23T12:59:38;7.70;99.90
25128;DHT22;13107;51.304;6.866;2024-03-23T13:03:39;8.20;99.90
25128;DHT22;13107;51.304;6.866;2024-03-23T13:07:41;8.40;99.90
25128;DHT22;13107;51.304;6.866;2024-03-23T13:11:42;8.90;99.90
25128;DHT22;13107;51.304;6.866;2024-03-23T13:15:52;8.80;99.90
25128;DHT22;13107;51.304;6.866;2024-03-23T13:19:55;8.90;99.90
25128;DHT22;13107;51.304;6.866;2024-03-23T13:23:56;8.60;99.90
25128;DHT22;13107;51.304;6.866;2024-03-23T13:27:57;7.90;99.90
25128;DHT22;13107;51.304;6.866;2024-03-23T13:31:58;7.30;99.90
25128;DHT22;13107;51.304;6.866;2024-03-23T13:35:59;6.90;99.90
25128;DHT22;13107;51.304;6.866;2024-03-23T13:40:00;7.00;99.90
25128;DHT22;13107;51.304;6.866;2024-03-23T13:44:01;7.00;99.90
25128;DHT22;13107;51.304;6.866;2024-03-23T13:48:02;7.80;99.90
25128;DHT22;13107;51.304;6.866;2024-03-23T13:52:03;8.90;99.90
25128;DHT22;13107;51.304;6.866;2024-03-23T13:56:04;9.60;99.90
25128;DHT22;13107;51.304;6.866;2024-03-23T14:00:07;9.90;99.90
25128;DHT22;13107;51.304;6.866;2024-03-23T14:04:08;9.30;99.90
25128;DHT22;13107;51.304;6.866;2024-03-23T14:08:10;8.50;99.90
25128;DHT22;13107;51.304;6.866;2024-03-23T14:12:11;8.20;99.90
25128;DHT22;13107;51.304;6.866;2024-03-23T14:16:12;8.30;99.90
25128;DHT22;13107;51.304;6.866;2024-03-23T14:20:13;8.80;99.90
25128;DHT22;13107;51.304;6.866;2024-03-23T14:24:13;9.10;99.90
25128;DHT22;13107;51.304;6.866;2024-03-23T14:28:14;9.10;99.90
25128;DHT22;13107;51.304;6.866;2024-03-23T14:32:15;9.30;99.90
25128;DHT22;13107;51.304;6.866;2024-03-23T14:36:17;8.90;99.90
25128;DHT22;13107;51.304;6.866;2024-03-23T14:40:20;8.60;99.90
25128;DHT22;13107;51.304;6.866;2024-03-23T14:44:21;8.50;99.90
25128;DHT22;13107;51.304;6.866;2024-03-23T14:48:24;8.30;99.90
25128;DHT22;13107;51.304;6.866;2024-03-23T14:52:25;8.20;99.90
25128;DHT22;13107;51.304;6.866;2024-03-23T14:56:26;8.00;99.90
25128;DHT22;13107;51.304;6.866;2024-03-23T15:00:27;7.80;99.90
25128;DHT22;13107;51.304;6.866;2024-03-23T15:04:27;7.80;99.90
25128;DHT22;13107;51.304;6.866;2024-03-23T15:08:28;7.70;99.90
25128;DHT22;13107;51.304;6.866;2024-03-23T15:12:30;7.90;99.90
25128;DHT22;13107;51.304;6.866;2024-03-23T15:16:33;7.90;99.90
25128;DHT22;13107;51.304;6.866;2024-03-23T15:20:34;8.10;99.90
25128;DHT22;13107;51.304;6.866;2024-03-23T15:24:36;8.20;99.90
25128;DHT22;13107;51.304;6.866;2024-03-23T15:28:37;8.40;99.90
25128;DHT22;13107;51.304;6.866;2024-03-23T15:32:38;8.60;99.90
25128;DHT22;13107;51.304;6.866;2024-03-23T15:36:39;8.80;99.90
25128;DHT22;13107;51.304;6.866;2024-03-23T15:40:40;8.70;99.90
25128;DHT22;13107;51.304;6.866;2024-03-23T15:44:41;8.50;99.90
25128;DHT22;13107;51.304;6.866;2024-03-23T15:48:42;8.20;99.90
25128;DHT22;13107;51.304;6.866;2024-03-23T15:52:47;8.00;99.90
25128;DHT22;13107;51.304;6.866;2024-03-23T15:56:47;7.90;99.90
25128;DHT22;13107;51.304;6.866;2024-03-23T16:00:55;8.00;99.90
25128;DHT22;13107;51.304;6.866;2024-03-23T16:04:56;8.00;99.90
25128;DHT22;13107;51.304;6.866;2024-03-23T16:08:58;7.90;99.90
25128;DHT22;13107;51.304;6.866;2024-03-23T16:12:59;7.80;99.90
25128;DHT22;13107;51.304;6.866;2024-03-23T16:17:00;7.60;99.90
25128;DHT22;13107;51.304;6.866;2024-03-23T16:21:05;7.50;99.90
25128;DHT22;13107;51.304;6.866;2024-03-23T16:25:06;7.40;99.90
25128;DHT22;13107;51.304;6.866;2024-03-23T16:29:08;7.30;99.90
25128;DHT22;13107;51.304;6.866;2024-03-23T16:33:10;7.20;99.90
25128;DHT22;13107;51.304;6.866;2024-03-23T16:37:11;7.00;99.90
25128;DHT22;13107;51.304;6.866;2024-03-23T16:41:12;6.90;99.90
25128;DHT22;13107;51.304;6.866;2024-03-23T16:45:14;6.90;99.90
25128;DHT22;13107;51.304;6.866;2024-03-23T16:49:14;7.10;99.90
25128;DHT22;13107;51.304;6.866;2024-03-23T16:53:15;7.10;99.90
25128;DHT22;13107;51.304;6.866;2024-03-23T16:57:16;7.10;99.90
25128;DHT22;13107;51.304;6.866;2024-03-23T17:01:17;7.30;99.90
25128;DHT22;13107;51.304;6.866;2024-03-23T17:05:21;7.20;99.90
25128;DHT22;13107;51.304;6.866;2024-03-23T17:09:23;7.20;99.90
25128;DHT22;13107;51.304;6.866;2024-03-23T17:13:24;7.00;99.90
25128;DHT22;13107;51.304;6.866;2024-03-23T17:17:27;6.90;99.90
25128;DHT22;13107;51.304;6.866;2024-03-23T17:21:27;6.80;99.90
25128;DHT22;13107;51.304;6.866;2024-03-23T17:25:28;6.70;99.90
25128;DHT22;13107;51.304;6.866;2024-03-23T17:29:29;6.80;99.90
25128;DHT22;13107;51.304;6.866;2024-03-23T17:33:30;6.80;99.90
25128;DHT22;13107;51.304;6.866;2024-03-23T17:37:31;6.80;99.90
25128;DHT22;13107;51.304;6.866;2024-03-23T17:41:31;6.70;99.90
25128;DHT22;13107;51.304;6.866;2024-03-23T17:45:32;6.50;99.90
25128;DHT22;13107;51.304;6.866;2024-03-23T17:49:33;6.40;99.90
25128;DHT22;13107;51.304;6.866;2024-03-23T17:53:40;6.20;99.90
25128;DHT22;13107;51.304;6.866;2024-03-23T17:57:41;6.10;99.90
25128;DHT22;13107;51.304;6.866;2024-03-23T18:01:42;6.00;99.90
25128;DHT22;13107;51.304;6.866;2024-03-23T18:05:43;5.90;99.90
25128;DHT22;13107;51.304;6.866;2024-03-23T18:09:44;5.90;99.90
25128;DHT22;13107;51.304;6.866;2024-03-23T18:13:45;5.80;99.90
25128;DHT22;13107;51.304;6.866;2024-03-23T18:17:45;5.70;99.90
25128;DHT22;13107;51.304;6.866;2024-03-23T18:21:49;5.50;99.90
25128;DHT22;13107;51.304;6.866;2024-03-23T18:25:51;5.40;99.90
25128;DHT22;13107;51.304;6.866;2024-03-23T18:29:52;5.30;99.90
25128;DHT22;13107;51.304;6.866;2024-03-23T18:33:53;5.30;99.90
25128;DHT22;13107;51.304;6.866;2024-03-23T18:37:54;5.10;99.90
25128;DHT22;13107;51.304;6.866;2024-03-23T18:41:55;5.00;99.90
25128;DHT22;13107;51.304;6.866;2024-03-23T18:45:56;4.80;99.90
25128;DHT22;13107;51.304;6.866;2024-03-23T18:49:57;4.90;99.90
25128;DHT22;13107;51.304;6.866;2024-03-23T18:53:59;4.90;99.90
25128;DHT22;13107;51.304;6.866;2024-03-23T18:58:02;4.70;99.90
25128;DHT22;13107;51.304;6.866;2024-03-23T19:02:04;4.70;99.90
25128;DHT22;13107;51.304;6.866;2024-03-23T19:06:05;4.70;99.90
25128;DHT22;13107;51.304;6.866;2024-03-23T19:10:06;4.60;99.90
25128;DHT22;13107;51.304;6.866;2024-03-23T19:14:07;4.70;99.90
25128;DHT22;13107;51.304;6.866;2024-03-23T19:18:08;4.80;99.90
25128;DHT22;13107;51.304;6.866;2024-03-23T19:22:09;4.80;99.90
25128;DHT22;13107;51.304;6.866;2024-03-23T19:26:10;5.00;99.90
25128;DHT22;13107;51.304;6.866;2024-03-23T19:30:11;5.00;99.90
25128;DHT22;13107;51.304;6.866;2024-03-23T19:34:12;5.00;99.90
25128;DHT22;13107;51.304;6.866;2024-03-23T19:38:13;5.00;99.90
25128;DHT22;13107;51.304;6.866;2024-03-23T19:42:14;5.00;99.90
25128;DHT22;13107;51.304;6.866;2024-03-23T19:46:15;5.10;99.90
25128;DHT22;13107;51.304;6.866;2024-03-23T19:50:18;5.10;99.90
25128;DHT22;13107;51.304;6.866;2024-03-23T19:54:20;5.10;99.90
25128;DHT22;13107;51.304;6.866;2024-03-23T19:58:21;5.20;99.90
25128;DHT22;13107;51.304;6.866;2024-03-23T20:02:22;5.20;99.90
25128;DHT22;13107;51.304;6.866;2024-03-23T20:06:23;5.20;99.90
25128;DHT22;13107;51.304;6.866;2024-03-23T20:10:25;5.20;99.90
25128;DHT22;13107;51.304;6.866;2024-03-23T20:14:26;5.20;99.90
25128;DHT22;13107;51.304;6.866;2024-03-23T20:18:27;5.10;99.90
25128;DHT22;13107;51.304;6.866;2024-03-23T20:22:29;5.10;99.90
25128;DHT22;13107;51.304;6.866;2024-03-23T20:26:30;5.10;99.90
25128;DHT22;13107;51.304;6.866;2024-03-23T20:30:31;5.10;99.90
25128;DHT22;13107;51.304;6.866;2024-03-23T20:34:31;5.10;99.90
25128;DHT22;13107;51.304;6.866;2024-03-23T20:38:32;5.00;99.90
25128;DHT22;13107;51.304;6.866;2024-03-23T20:42:33;4.90;99.90
25128;DHT22;13107;51.304;6.866;2024-03-23T20:46:34;4.70;99.90
25128;DHT22;13107;51.304;6.866;2024-03-23T20:50:34;4.80;99.90
25128;DHT22;13107;51.304;6.866;2024-03-23T20:54:35;4.70;99.90
25128;DHT22;13107;51.304;6.866;2024-03-23T20:58:36;4.60;99.90
25128;DHT22;13107;51.304;6.866;2024-03-23T21:02:39;4.70;99.90
25128;DHT22;13107;51.304;6.866;2024-03-23T21:06:40;4.70;99.90
25128;DHT22;13107;51.304;6.866;2024-03-23T21:10:48;4.70;99.90
25128;DHT22;13107;51.304;6.866;2024-03-23T21:14:52;4.60;99.90
25128;DHT22;13107;51.304;6.866;2024-03-23T21:18:53;4.70;99.90
25128;DHT22;13107;51.304;6.866;2024-03-23T21:22:56;4.50;99.90
25128;DHT22;13107;51.304;6.866;2024-03-23T21:26:56;4.50;99.90
25128;DHT22;13107;51.304;6.866;2024-03-23T21:30:57;4.50;99.90
25128;DHT22;13107;51.304;6.866;2024-03-23T21:34:58;4.40;99.90
25128;DHT22;13107;51.304;6.866;2024-03-23T21:38:59;4.40;99.90
25128;DHT22;13107;51.304;6.866;2024-03-23T21:43:00;4.30;99.90
25128;DHT22;13107;51.304;6.866;2024-03-23T21:47:01;4.30;99.90
25128;DHT22;13107;51.304;6.866;2024-03-23T21:51:03;4.30;99.90
25128;DHT22;13107;51.304;6.866;2024-03-23T21:55:05;4.20;99.90
25128;DHT22;13107;51.304;6.866;2024-03-23T21:59:06;4.20;99.90
25128;DHT22;13107;51.304;6.866;2024-03-23T22:03:08;4.10;99.90
25128;DHT22;13107;51.304;6.866;2024-03-23T22:07:08;4.10;99.90
25128;DHT22;13107;51.304;6.866;2024-03-23T22:11:09;4.20;99.90
25128;DHT22;13107;51.304;6.866;2024-03-23T22:15:10;4.30;99.90
25128;DHT22;13107;51.304;6.866;2024-03-23T22:19:11;4.40;99.90
25128;DHT22;13107;51.304;6.866;2024-03-23T22:23:12;4.50;99.90
25128;DHT22;13107;51.304;6.866;2024-03-23T22:27:13;4.60;99.90
25128;DHT22;13107;51.304;6.866;2024-03-23T22:31:13;4.60;99.90
25128;DHT22;13107;51.304;6.866;2024-03-23T22:35:14;4.70;99.90
25128;DHT22;13107;51.304;6.866;2024-03-23T22:39:15;4.80;99.90
25128;DHT22;13107;51.304;6.866;2024-03-23T22:43:16;4.90;99.90
25128;DHT22;13107;51.304;6.866;2024-03-23T22:47:17;5.10;99.90
25128;DHT22;13107;51.304;6.866;2024-03-23T22:51:18;5.10;99.90
25128;DHT22;13107;51.304;6.866;2024-03-23T22:55:19;5.20;99.90
25128;DHT22;13107;51.304;6.866;2024-03-23T22:59:20;5.20;99.90
25128;DHT22;13107;51.304;6.866;2024-03-23T23:03:23;5.30;99.90
25128;DHT22;13107;51.304;6.866;2024-03-23T23:12:27;5.40;99.90
25128;DHT22;13107;51.304;6.866;2024-03-23T23:16:28;5.30;99.90
25128;DHT22;13107;51.304;6.866;2024-03-23T23:25:46;5.20;99.90
25128;DHT22;13107;51.304;6.866;2024-03-23T23:29:47;5.20;99.90
25128;DHT22;13107;51.304;6.866;2024-03-23T23:33:47;5.20;99.90
25128;DHT22;13107;51.304;6.866;2024-03-23T23:37:50;5.20;99.90
25128;DHT22;13107;51.304;6.866;2024-03-23T23:41:51;5.20;99.90
25128;DHT22;13107;51.304;6.866;2024-03-23T23:45:52;5.40;99.90
25128;DHT22;13107;51.304;6.866;2024-03-23T23:49:55;5.30;99.90
25128;DHT22;13107;51.304;6.866;2024-03-23T23:53:56;5.30;99.90
25128;DHT22;13107;51.304;6.866;2024-03-23T23:57:57;5.40;99.90
